CSN2703 ZGGG-ZYTL
Flight info
| Callsign | CSN2703 |
|---|---|
| Flight time | 2h 43m |
| Altitude | 32100 |
| Route | MIKIP1 MIKIP A461 BUBDA W56 REBIS/K0859S1010 W56 VADMO W4 HCH W173 NIXEP NIX18A |
| Aircraft | A321/M-SDE3FGHIRWY/LB1 |
Departure
| Time | 2026-04-24 11:44 |
|---|---|
| Airport | Guangzhou Baiyun International Airport (ZGGG) |
Arrival
| Time | 2026-04-24 14:28 |
|---|---|
| Airport | Dalian Zhoushuizi International Airport (ZYTL) |
| Time | Latitude | Longitude | Altitude | Speed | Heading |
|---|---|---|---|---|---|
| 2026-04-24 10:44 | 23.38428 | 113.30152 | 59 ft | 0 kts | 232° |
| 2026-04-24 11:19 | 23.38431 | 113.30155 | 58 ft | 2 kts | 232° |
| 2026-04-24 11:19 | 23.38443 | 113.30172 | 55 ft | 3 kts | 232° |
| 2026-04-24 11:20 | 23.38455 | 113.30189 | 53 ft | 2 kts | 232° |
| 2026-04-24 11:20 | 23.38466 | 113.30203 | 51 ft | 3 kts | 219° |
| 2026-04-24 11:20 | 23.38481 | 113.30213 | 54 ft | 3 kts | 183° |
| 2026-04-24 11:20 | 23.38499 | 113.30210 | 50 ft | 3 kts | 151° |
| 2026-04-24 11:21 | 23.38515 | 113.30199 | 51 ft | 2 kts | 142° |
| 2026-04-24 11:21 | 23.38520 | 113.30195 | 50 ft | 1 kts | 142° |
| 2026-04-24 11:21 | 23.38521 | 113.30193 | 51 ft | 0 kts | 142° |
| 2026-04-24 11:25 | 23.38521 | 113.30194 | 51 ft | 0 kts | 142° |
| 2026-04-24 11:25 | 23.38517 | 113.30198 | 52 ft | 1 kts | 142° |
| 2026-04-24 11:26 | 23.38509 | 113.30204 | 52 ft | 2 kts | 142° |
| 2026-04-24 11:26 | 23.38499 | 113.30213 | 54 ft | 2 kts | 142° |
| 2026-04-24 11:26 | 23.38485 | 113.30225 | 55 ft | 3 kts | 142° |
| 2026-04-24 11:26 | 23.38468 | 113.30239 | 54 ft | 3 kts | 142° |
| 2026-04-24 11:27 | 23.38448 | 113.30256 | 52 ft | 4 kts | 142° |
| 2026-04-24 11:27 | 23.38425 | 113.30276 | 58 ft | 5 kts | 142° |
| 2026-04-24 11:27 | 23.38405 | 113.30303 | 57 ft | 5 kts | 119° |
| 2026-04-24 11:27 | 23.38397 | 113.30339 | 58 ft | 6 kts | 103° |
| 2026-04-24 11:28 | 23.38382 | 113.30399 | 57 ft | 11 kts | 105° |
| 2026-04-24 11:28 | 23.38356 | 113.30498 | 54 ft | 16 kts | 105° |
| 2026-04-24 11:28 | 23.38294 | 113.30523 | 56 ft | 11 kts | 187° |
| 2026-04-24 11:28 | 23.38200 | 113.30504 | 52 ft | 16 kts | 195° |
| 2026-04-24 11:29 | 23.38159 | 113.30492 | 54 ft | 0 kts | 194° |
| 2026-04-24 11:29 | 23.38158 | 113.30492 | 54 ft | 1 kts | 194° |
| 2026-04-24 11:29 | 23.38134 | 113.30485 | 55 ft | 6 kts | 194° |
| 2026-04-24 11:29 | 23.38073 | 113.30469 | 54 ft | 12 kts | 194° |
| 2026-04-24 11:30 | 23.38013 | 113.30452 | 52 ft | 15 kts | 194° |
| 2026-04-24 11:30 | 23.37895 | 113.30420 | 52 ft | 20 kts | 194° |
| 2026-04-24 11:30 | 23.37743 | 113.30379 | 53 ft | 25 kts | 194° |
| 2026-04-24 11:30 | 23.37662 | 113.30357 | 53 ft | 7 kts | 194° |
| 2026-04-24 11:31 | 23.37624 | 113.30365 | 53 ft | 6 kts | 132° |
| 2026-04-24 11:31 | 23.37610 | 113.30410 | 54 ft | 1 kts | 104° |
| 2026-04-24 11:31 | 23.37609 | 113.30413 | 55 ft | 0 kts | 104° |
| 2026-04-24 11:32 | 23.37607 | 113.30423 | 54 ft | 4 kts | 104° |
| 2026-04-24 11:32 | 23.37601 | 113.30450 | 55 ft | 7 kts | 104° |
| 2026-04-24 11:32 | 23.37584 | 113.30523 | 58 ft | 12 kts | 104° |
| 2026-04-24 11:32 | 23.37559 | 113.30632 | 58 ft | 18 kts | 104° |
| 2026-04-24 11:33 | 23.37504 | 113.30717 | 54 ft | 8 kts | 180° |
| 2026-04-24 11:33 | 23.37434 | 113.30699 | 53 ft | 13 kts | 193° |
| 2026-04-24 11:33 | 23.37338 | 113.30674 | 52 ft | 14 kts | 193° |
| 2026-04-24 11:33 | 23.37240 | 113.30648 | 54 ft | 15 kts | 193° |
| 2026-04-24 11:34 | 23.37142 | 113.30622 | 54 ft | 15 kts | 193° |
| 2026-04-24 11:34 | 23.37044 | 113.30596 | 53 ft | 14 kts | 193° |
| 2026-04-24 11:34 | 23.37006 | 113.30626 | 56 ft | 0 kts | 117° |
| 2026-04-24 11:34 | 23.37006 | 113.30630 | 54 ft | 1 kts | 109° |
| 2026-04-24 11:35 | 23.37004 | 113.30637 | 52 ft | 1 kts | 103° |
| 2026-04-24 11:35 | 23.37001 | 113.30647 | 53 ft | 2 kts | 106° |
| 2026-04-24 11:35 | 23.36999 | 113.30654 | 55 ft | 1 kts | 104° |
| 2026-04-24 11:35 | 23.36999 | 113.30656 | 56 ft | 0 kts | 104° |
| 2026-04-24 11:38 | 23.36998 | 113.30659 | 57 ft | 1 kts | 104° |
| 2026-04-24 11:38 | 23.36998 | 113.30660 | 57 ft | 0 kts | 104° |
| 2026-04-24 11:40 | 23.36997 | 113.30665 | 55 ft | 1 kts | 104° |
| 2026-04-24 11:40 | 23.36994 | 113.30678 | 57 ft | 2 kts | 104° |
| 2026-04-24 11:40 | 23.36991 | 113.30692 | 50 ft | 0 kts | 104° |
| 2026-04-24 11:41 | 23.36990 | 113.30695 | 50 ft | 1 kts | 104° |
| 2026-04-24 11:41 | 23.36987 | 113.30710 | 51 ft | 3 kts | 104° |
| 2026-04-24 11:42 | 23.36980 | 113.30740 | 55 ft | 5 kts | 103° |
| 2026-04-24 11:42 | 23.36996 | 113.30773 | 52 ft | 5 kts | 43° |
| 2026-04-24 11:42 | 23.37031 | 113.30791 | 53 ft | 6 kts | 23° |
| 2026-04-24 11:42 | 23.37043 | 113.30793 | 51 ft | 1 kts | 11° |
| 2026-04-24 11:43 | 23.37051 | 113.30795 | 49 ft | 2 kts | 11° |
| 2026-04-24 11:43 | 23.37064 | 113.30799 | 51 ft | 3 kts | 14° |
| 2026-04-24 11:43 | 23.37186 | 113.30833 | 55 ft | 49 kts | 14° |
| 2026-04-24 11:43 | 23.37739 | 113.30982 | 57 ft | 112 kts | 14° |
| 2026-04-24 11:44 | 23.38673 | 113.31234 | 57 ft | 162 kts | 13° |
| 2026-04-24 11:44 | 23.39859 | 113.31549 | 408 ft | 174 kts | 14° |
| 2026-04-24 11:44 | 23.40969 | 113.31844 | 1361 ft | 157 kts | 14° |
| 2026-04-24 11:44 | 23.42029 | 113.32116 | 1914 ft | 159 kts | 14° |
| 2026-04-24 11:45 | 23.43176 | 113.32405 | 2103 ft | 180 kts | 14° |
| 2026-04-24 11:45 | 23.44463 | 113.32732 | 2253 ft | 200 kts | 14° |
| 2026-04-24 11:45 | 23.45865 | 113.33092 | 2455 ft | 213 kts | 14° |
| 2026-04-24 11:45 | 23.47370 | 113.33478 | 2680 ft | 229 kts | 14° |
| 2026-04-24 11:46 | 23.48942 | 113.33881 | 3292 ft | 233 kts | 14° |
| 2026-04-24 11:46 | 23.50536 | 113.34292 | 3895 ft | 238 kts | 13° |
| 2026-04-24 11:46 | 23.52163 | 113.34712 | 4416 ft | 244 kts | 12° |
| 2026-04-24 11:46 | 23.53845 | 113.35144 | 4960 ft | 251 kts | 12° |
| 2026-04-24 11:47 | 23.55560 | 113.35584 | 5531 ft | 256 kts | 11° |
| 2026-04-24 11:47 | 23.57323 | 113.35889 | 6101 ft | 258 kts | 1° |
| 2026-04-24 11:47 | 23.59128 | 113.36032 | 6659 ft | 262 kts | 1° |
| 2026-04-24 11:47 | 23.60959 | 113.36183 | 7233 ft | 265 kts | 1° |
| 2026-04-24 11:48 | 23.62779 | 113.36335 | 7816 ft | 267 kts | 1° |
| 2026-04-24 11:48 | 23.64638 | 113.36491 | 8388 ft | 269 kts | 1° |
| 2026-04-24 11:48 | 23.66443 | 113.36641 | 8955 ft | 271 kts | 0° |
| 2026-04-24 11:48 | 23.68327 | 113.36797 | 9550 ft | 273 kts | 0° |
| 2026-04-24 11:49 | 23.70228 | 113.36954 | 10092 ft | 275 kts | 0° |
| 2026-04-24 11:49 | 23.72146 | 113.37113 | 10607 ft | 277 kts | 0° |
| 2026-04-24 11:49 | 23.74074 | 113.37273 | 11131 ft | 279 kts | 0° |
| 2026-04-24 11:49 | 23.76013 | 113.37435 | 11644 ft | 281 kts | 360° |
| 2026-04-24 11:50 | 23.77968 | 113.37599 | 12151 ft | 283 kts | 360° |
| 2026-04-24 11:50 | 23.79963 | 113.37769 | 12440 ft | 296 kts | 0° |
| 2026-04-24 11:50 | 23.82074 | 113.37959 | 12575 ft | 313 kts | 0° |
| 2026-04-24 11:50 | 23.84114 | 113.38149 | 12703 ft | 329 kts | 0° |
| 2026-04-24 11:51 | 23.86455 | 113.38370 | 12824 ft | 346 kts | 1° |
| 2026-04-24 11:51 | 23.88910 | 113.38605 | 12967 ft | 362 kts | 1° |
| 2026-04-24 11:51 | 23.91470 | 113.38851 | 13081 ft | 377 kts | 1° |
| 2026-04-24 11:51 | 23.94132 | 113.39109 | 13205 ft | 391 kts | 1° |
| 2026-04-24 11:52 | 23.96858 | 113.39373 | 13348 ft | 405 kts | 1° |
| 2026-04-24 11:52 | 23.99744 | 113.39651 | 13536 ft | 416 kts | 1° |
| 2026-04-24 11:52 | 24.02650 | 113.39932 | 13960 ft | 421 kts | 1° |
| 2026-04-24 11:52 | 24.05541 | 113.40212 | 14392 ft | 424 kts | 1° |
| 2026-04-24 11:53 | 24.08491 | 113.40498 | 14838 ft | 427 kts | 1° |
| 2026-04-24 11:53 | 24.11457 | 113.40783 | 15286 ft | 429 kts | 1° |
| 2026-04-24 11:53 | 24.14445 | 113.41069 | 15710 ft | 432 kts | 1° |
| 2026-04-24 11:53 | 24.17449 | 113.41356 | 16128 ft | 434 kts | 1° |
| 2026-04-24 11:54 | 24.20467 | 113.41618 | 16532 ft | 436 kts | 359° |
| 2026-04-24 11:54 | 24.23500 | 113.41785 | 16933 ft | 437 kts | 358° |
| 2026-04-24 11:54 | 24.26550 | 113.41878 | 17330 ft | 439 kts | 356° |
| 2026-04-24 11:54 | 24.29613 | 113.41933 | 17724 ft | 441 kts | 356° |
| 2026-04-24 11:55 | 24.32692 | 113.41982 | 18126 ft | 444 kts | 356° |
| 2026-04-24 11:55 | 24.35785 | 113.42046 | 18471 ft | 446 kts | 356° |
| 2026-04-24 11:55 | 24.38896 | 113.42119 | 18780 ft | 448 kts | 356° |
| 2026-04-24 11:55 | 24.42019 | 113.42200 | 19094 ft | 450 kts | 356° |
| 2026-04-24 11:56 | 24.45157 | 113.42287 | 19379 ft | 453 kts | 356° |
| 2026-04-24 11:56 | 24.48318 | 113.42382 | 19658 ft | 455 kts | 356° |
| 2026-04-24 11:56 | 24.51490 | 113.42477 | 19984 ft | 457 kts | 356° |
| 2026-04-24 11:56 | 24.54676 | 113.42572 | 20312 ft | 459 kts | 356° |
| 2026-04-24 11:57 | 24.57877 | 113.42666 | 20609 ft | 461 kts | 356° |
| 2026-04-24 11:57 | 24.61092 | 113.42758 | 20897 ft | 463 kts | 356° |
| 2026-04-24 11:57 | 24.64325 | 113.42850 | 21185 ft | 465 kts | 356° |
| 2026-04-24 11:57 | 24.67568 | 113.42941 | 21484 ft | 468 kts | 356° |
| 2026-04-24 11:58 | 24.70830 | 113.43033 | 21776 ft | 470 kts | 356° |
| 2026-04-24 11:58 | 24.74105 | 113.43127 | 22055 ft | 472 kts | 356° |
| 2026-04-24 11:58 | 24.77395 | 113.43220 | 22334 ft | 474 kts | 356° |
| 2026-04-24 11:58 | 24.80699 | 113.43315 | 22605 ft | 476 kts | 356° |
| 2026-04-24 11:59 | 24.84020 | 113.43411 | 22908 ft | 478 kts | 356° |
| 2026-04-24 11:59 | 24.87354 | 113.43508 | 23211 ft | 480 kts | 356° |
| 2026-04-24 11:59 | 24.90657 | 113.43604 | 23500 ft | 482 kts | 356° |
| 2026-04-24 11:59 | 24.94018 | 113.43698 | 23781 ft | 484 kts | 356° |
| 2026-04-24 12:00 | 24.97377 | 113.43790 | 24130 ft | 483 kts | 356° |
| 2026-04-24 12:00 | 25.00731 | 113.43880 | 24481 ft | 482 kts | 355° |
| 2026-04-24 12:00 | 25.04082 | 113.43972 | 24835 ft | 481 kts | 355° |
| 2026-04-24 12:00 | 25.07430 | 113.44069 | 25189 ft | 481 kts | 355° |
| 2026-04-24 12:01 | 25.10772 | 113.44168 | 25531 ft | 481 kts | 355° |
| 2026-04-24 12:01 | 25.14119 | 113.44269 | 25877 ft | 481 kts | 355° |
| 2026-04-24 12:01 | 25.17460 | 113.44367 | 26229 ft | 480 kts | 354° |
| 2026-04-24 12:01 | 25.20801 | 113.44463 | 26582 ft | 480 kts | 354° |
| 2026-04-24 12:02 | 25.24136 | 113.44557 | 26916 ft | 480 kts | 354° |
| 2026-04-24 12:02 | 25.27473 | 113.44653 | 27273 ft | 479 kts | 354° |
| 2026-04-24 12:02 | 25.30799 | 113.44748 | 27633 ft | 478 kts | 354° |
| 2026-04-24 12:02 | 25.34120 | 113.44842 | 28044 ft | 477 kts | 353° |
| 2026-04-24 12:03 | 25.37436 | 113.44936 | 28400 ft | 476 kts | 353° |
| 2026-04-24 12:03 | 25.40750 | 113.45032 | 28800 ft | 476 kts | 353° |
| 2026-04-24 12:03 | 25.44010 | 113.45130 | 29127 ft | 474 kts | 353° |
| 2026-04-24 12:03 | 25.47302 | 113.45230 | 29410 ft | 473 kts | 353° |
| 2026-04-24 12:04 | 25.50595 | 113.45326 | 29709 ft | 473 kts | 353° |
| 2026-04-24 12:04 | 25.53882 | 113.45419 | 30034 ft | 472 kts | 352° |
| 2026-04-24 12:04 | 25.57161 | 113.45511 | 30354 ft | 471 kts | 352° |
| 2026-04-24 12:04 | 25.60434 | 113.45604 | 30654 ft | 470 kts | 352° |
| 2026-04-24 12:05 | 25.63705 | 113.45696 | 30912 ft | 470 kts | 352° |
| 2026-04-24 12:05 | 25.66976 | 113.45786 | 31185 ft | 470 kts | 352° |
| 2026-04-24 12:05 | 25.70244 | 113.45876 | 31448 ft | 470 kts | 352° |
| 2026-04-24 12:05 | 25.73510 | 113.45970 | 31710 ft | 470 kts | 352° |
| 2026-04-24 12:06 | 25.76774 | 113.46065 | 31969 ft | 469 kts | 352° |
| 2026-04-24 12:06 | 25.80037 | 113.46161 | 32151 ft | 470 kts | 352° |
| 2026-04-24 12:06 | 25.86628 | 113.46343 | 32196 ft | 475 kts | 351° |
| 2026-04-24 12:07 | 25.93208 | 113.46277 | 32193 ft | 471 kts | 348° |
| 2026-04-24 12:07 | 25.99747 | 113.45941 | 32191 ft | 470 kts | 347° |
| 2026-04-24 12:08 | 26.06271 | 113.45604 | 32193 ft | 470 kts | 348° |
| 2026-04-24 12:08 | 26.12762 | 113.45346 | 32196 ft | 470 kts | 348° |
| 2026-04-24 12:09 | 26.19299 | 113.45117 | 32196 ft | 470 kts | 349° |
| 2026-04-24 12:09 | 26.25840 | 113.44877 | 32195 ft | 470 kts | 348° |
| 2026-04-24 12:10 | 26.32378 | 113.44618 | 32198 ft | 470 kts | 348° |
| 2026-04-24 12:11 | 26.42190 | 113.44234 | 32202 ft | 471 kts | 349° |
| 2026-04-24 12:11 | 26.48737 | 113.43991 | 32200 ft | 471 kts | 349° |
| 2026-04-24 12:12 | 26.55287 | 113.43743 | 32204 ft | 471 kts | 349° |
| 2026-04-24 12:12 | 26.61804 | 113.43487 | 32199 ft | 471 kts | 348° |
| 2026-04-24 12:13 | 26.68352 | 113.43231 | 32199 ft | 471 kts | 349° |
| 2026-04-24 12:13 | 26.74899 | 113.42984 | 32199 ft | 470 kts | 349° |
| 2026-04-24 12:14 | 26.81437 | 113.42737 | 32199 ft | 470 kts | 349° |
| 2026-04-24 12:14 | 26.87975 | 113.42481 | 32200 ft | 470 kts | 349° |
| 2026-04-24 12:15 | 26.94471 | 113.42232 | 32200 ft | 470 kts | 349° |
| 2026-04-24 12:15 | 27.01013 | 113.41981 | 32199 ft | 470 kts | 349° |
| 2026-04-24 12:16 | 27.07553 | 113.41729 | 32195 ft | 470 kts | 349° |
| 2026-04-24 12:16 | 27.14089 | 113.41471 | 32194 ft | 470 kts | 349° |
| 2026-04-24 12:17 | 27.20618 | 113.41218 | 32198 ft | 469 kts | 349° |
| 2026-04-24 12:17 | 27.27146 | 113.40962 | 32196 ft | 469 kts | 349° |
| 2026-04-24 12:18 | 27.33672 | 113.40722 | 32197 ft | 470 kts | 350° |
| 2026-04-24 12:18 | 27.40245 | 113.40751 | 32201 ft | 474 kts | 353° |
| 2026-04-24 12:19 | 27.46836 | 113.40976 | 32204 ft | 474 kts | 353° |
| 2026-04-24 12:19 | 27.53378 | 113.41173 | 32204 ft | 473 kts | 352° |
| 2026-04-24 12:20 | 27.59953 | 113.41301 | 32202 ft | 472 kts | 352° |
| 2026-04-24 12:20 | 27.66524 | 113.41430 | 32202 ft | 473 kts | 353° |
| 2026-04-24 12:21 | 27.73117 | 113.41892 | 32201 ft | 476 kts | 356° |
| 2026-04-24 12:21 | 27.79726 | 113.42598 | 32198 ft | 477 kts | 357° |
| 2026-04-24 12:22 | 27.86334 | 113.43276 | 32202 ft | 476 kts | 356° |
| 2026-04-24 12:22 | 27.92926 | 113.43859 | 32201 ft | 475 kts | 355° |
| 2026-04-24 12:23 | 27.99523 | 113.44405 | 32204 ft | 475 kts | 356° |
| 2026-04-24 12:23 | 28.06119 | 113.44965 | 32205 ft | 475 kts | 356° |
| 2026-04-24 12:24 | 28.12709 | 113.45525 | 32203 ft | 475 kts | 355° |
| 2026-04-24 12:24 | 28.19257 | 113.45990 | 32206 ft | 474 kts | 355° |
| 2026-04-24 12:25 | 28.25844 | 113.46430 | 32202 ft | 474 kts | 355° |
| 2026-04-24 12:25 | 28.32431 | 113.46897 | 32199 ft | 475 kts | 355° |
| 2026-04-24 12:26 | 28.37953 | 113.47304 | 32195 ft | 475 kts | 355° |
| 2026-04-24 12:26 | 28.45610 | 113.47860 | 32196 ft | 474 kts | 355° |
| 2026-04-24 12:27 | 28.51131 | 113.48257 | 32196 ft | 474 kts | 355° |
| 2026-04-24 12:27 | 28.57721 | 113.48727 | 32197 ft | 474 kts | 355° |
| 2026-04-24 12:28 | 28.64310 | 113.49191 | 32197 ft | 474 kts | 355° |
| 2026-04-24 12:28 | 28.70850 | 113.49659 | 32201 ft | 474 kts | 355° |
| 2026-04-24 12:29 | 28.77438 | 113.50126 | 32202 ft | 474 kts | 355° |
| 2026-04-24 12:29 | 28.84028 | 113.50599 | 32200 ft | 474 kts | 355° |
| 2026-04-24 12:30 | 28.90619 | 113.51072 | 32200 ft | 474 kts | 355° |
| 2026-04-24 12:30 | 28.97206 | 113.51553 | 32198 ft | 474 kts | 355° |
| 2026-04-24 12:31 | 29.03792 | 113.52028 | 32196 ft | 474 kts | 355° |
| 2026-04-24 12:31 | 29.10384 | 113.52501 | 32199 ft | 475 kts | 355° |
| 2026-04-24 12:32 | 29.16978 | 113.52978 | 32199 ft | 475 kts | 355° |
| 2026-04-24 12:32 | 29.23571 | 113.53455 | 32188 ft | 475 kts | 355° |
| 2026-04-24 12:33 | 29.30171 | 113.53939 | 32189 ft | 475 kts | 355° |
| 2026-04-24 12:33 | 29.36771 | 113.54491 | 32193 ft | 476 kts | 356° |
| 2026-04-24 12:34 | 29.43376 | 113.55086 | 32200 ft | 476 kts | 356° |
| 2026-04-24 12:34 | 29.49976 | 113.55674 | 32204 ft | 475 kts | 356° |
| 2026-04-24 12:35 | 29.56573 | 113.56247 | 32202 ft | 475 kts | 356° |
| 2026-04-24 12:35 | 29.63117 | 113.56809 | 32201 ft | 475 kts | 356° |
| 2026-04-24 12:36 | 29.69703 | 113.57386 | 32203 ft | 474 kts | 356° |
| 2026-04-24 12:36 | 29.76283 | 113.57960 | 32204 ft | 474 kts | 356° |
| 2026-04-24 12:37 | 29.82860 | 113.58527 | 32201 ft | 474 kts | 357° |
| 2026-04-24 12:37 | 29.89431 | 113.59102 | 32199 ft | 474 kts | 357° |
| 2026-04-24 12:38 | 29.95983 | 113.60397 | 32194 ft | 487 kts | 12° |
| 2026-04-24 12:38 | 30.02290 | 113.63442 | 32195 ft | 492 kts | 17° |
| 2026-04-24 12:39 | 30.14833 | 113.69683 | 32194 ft | 493 kts | 17° |
| 2026-04-24 12:40 | 30.21130 | 113.72827 | 32191 ft | 493 kts | 17° |
| 2026-04-24 12:40 | 30.27422 | 113.75979 | 32190 ft | 493 kts | 17° |
| 2026-04-24 12:41 | 30.33719 | 113.79138 | 32189 ft | 493 kts | 17° |
| 2026-04-24 12:41 | 30.40020 | 113.82305 | 32194 ft | 493 kts | 17° |
| 2026-04-24 12:42 | 30.46314 | 113.85463 | 32190 ft | 493 kts | 18° |
| 2026-04-24 12:42 | 30.52606 | 113.88634 | 32189 ft | 493 kts | 18° |
| 2026-04-24 12:43 | 30.58896 | 113.91806 | 32187 ft | 493 kts | 18° |
| 2026-04-24 12:43 | 30.65186 | 113.94978 | 32185 ft | 492 kts | 18° |
| 2026-04-24 12:44 | 30.71490 | 113.98067 | 32185 ft | 492 kts | 18° |
| 2026-04-24 12:44 | 30.77676 | 114.01397 | 32185 ft | 494 kts | 20° |
| 2026-04-24 12:45 | 30.83855 | 114.04908 | 32184 ft | 494 kts | 20° |
| 2026-04-24 12:45 | 30.90056 | 114.08321 | 32187 ft | 492 kts | 19° |
| 2026-04-24 12:46 | 30.96272 | 114.11658 | 32189 ft | 491 kts | 19° |
| 2026-04-24 12:46 | 31.02468 | 114.14996 | 32192 ft | 490 kts | 20° |
| 2026-04-24 12:47 | 31.08650 | 114.18355 | 32191 ft | 490 kts | 20° |
| 2026-04-24 12:47 | 31.14816 | 114.21720 | 32194 ft | 489 kts | 20° |
| 2026-04-24 12:48 | 31.20976 | 114.25072 | 32187 ft | 488 kts | 20° |
| 2026-04-24 12:48 | 31.27118 | 114.28433 | 32193 ft | 487 kts | 20° |
| 2026-04-24 12:49 | 31.33237 | 114.31668 | 32195 ft | 482 kts | 14° |
| 2026-04-24 12:49 | 31.39681 | 114.33260 | 32183 ft | 468 kts | 357° |
| 2026-04-24 12:50 | 31.46158 | 114.33456 | 32189 ft | 466 kts | 356° |
| 2026-04-24 12:50 | 31.52633 | 114.33651 | 32188 ft | 465 kts | 356° |
| 2026-04-24 12:51 | 31.59094 | 114.33853 | 32184 ft | 464 kts | 356° |
| 2026-04-24 12:51 | 31.65549 | 114.34046 | 32184 ft | 464 kts | 356° |
| 2026-04-24 12:52 | 31.71991 | 114.34235 | 32180 ft | 462 kts | 356° |
| 2026-04-24 12:52 | 31.78375 | 114.34426 | 32180 ft | 462 kts | 355° |
| 2026-04-24 12:53 | 31.84795 | 114.34622 | 32181 ft | 461 kts | 355° |
| 2026-04-24 12:53 | 31.91206 | 114.34807 | 32177 ft | 461 kts | 355° |
| 2026-04-24 12:54 | 31.97611 | 114.34998 | 32171 ft | 460 kts | 356° |
| 2026-04-24 12:54 | 32.04010 | 114.35199 | 32172 ft | 460 kts | 356° |
| 2026-04-24 12:55 | 32.10406 | 114.35401 | 32171 ft | 460 kts | 356° |
| 2026-04-24 12:55 | 32.16803 | 114.35594 | 32168 ft | 460 kts | 356° |
| 2026-04-24 12:56 | 32.23197 | 114.35779 | 32163 ft | 460 kts | 356° |
| 2026-04-24 12:56 | 32.29597 | 114.36071 | 32166 ft | 461 kts | 358° |
| 2026-04-24 12:57 | 32.35964 | 114.36686 | 32163 ft | 463 kts | 360° |
| 2026-04-24 12:57 | 32.42378 | 114.37379 | 32163 ft | 463 kts | 359° |
| 2026-04-24 12:58 | 32.48792 | 114.37997 | 32163 ft | 462 kts | 359° |
| 2026-04-24 12:58 | 32.55202 | 114.38558 | 32160 ft | 462 kts | 359° |
| 2026-04-24 12:59 | 32.61612 | 114.39129 | 32157 ft | 462 kts | 359° |
| 2026-04-24 12:59 | 32.68018 | 114.39720 | 32158 ft | 462 kts | 359° |
| 2026-04-24 13:00 | 32.74291 | 114.40311 | 32155 ft | 461 kts | 359° |
| 2026-04-24 13:00 | 32.80688 | 114.40913 | 32157 ft | 461 kts | 359° |
| 2026-04-24 13:01 | 32.87082 | 114.41504 | 32156 ft | 461 kts | 359° |
| 2026-04-24 13:01 | 32.93478 | 114.42099 | 32160 ft | 461 kts | 359° |
| 2026-04-24 13:02 | 32.99865 | 114.42702 | 32158 ft | 461 kts | 360° |
| 2026-04-24 13:02 | 33.06253 | 114.43306 | 32162 ft | 460 kts | 360° |
| 2026-04-24 13:03 | 33.12599 | 114.43897 | 32164 ft | 460 kts | 360° |
| 2026-04-24 13:03 | 33.18977 | 114.44491 | 32156 ft | 459 kts | 360° |
| 2026-04-24 13:04 | 33.25348 | 114.45094 | 32155 ft | 459 kts | 0° |
| 2026-04-24 13:04 | 33.31716 | 114.45698 | 32165 ft | 459 kts | 0° |
| 2026-04-24 13:05 | 33.38085 | 114.46295 | 32162 ft | 459 kts | 0° |
| 2026-04-24 13:05 | 33.44447 | 114.46892 | 32160 ft | 458 kts | 0° |
| 2026-04-24 13:06 | 33.50805 | 114.47488 | 32157 ft | 458 kts | 0° |
| 2026-04-24 13:06 | 33.57160 | 114.48089 | 32156 ft | 458 kts | 0° |
| 2026-04-24 13:07 | 33.63516 | 114.48691 | 32149 ft | 458 kts | 0° |
| 2026-04-24 13:07 | 33.69866 | 114.49287 | 32147 ft | 458 kts | 0° |
| 2026-04-24 13:08 | 33.76216 | 114.49885 | 32158 ft | 458 kts | 0° |
| 2026-04-24 13:08 | 33.82563 | 114.50472 | 32150 ft | 458 kts | 0° |
| 2026-04-24 13:09 | 33.92087 | 114.51353 | 32150 ft | 458 kts | 0° |
| 2026-04-24 13:09 | 33.98438 | 114.51967 | 32152 ft | 458 kts | 1° |
| 2026-04-24 13:10 | 34.04790 | 114.52584 | 32149 ft | 458 kts | 1° |
| 2026-04-24 13:10 | 34.11140 | 114.53188 | 32154 ft | 458 kts | 1° |
| 2026-04-24 13:11 | 34.17492 | 114.53780 | 32152 ft | 458 kts | 1° |
| 2026-04-24 13:11 | 34.23846 | 114.54380 | 32155 ft | 458 kts | 1° |
| 2026-04-24 13:12 | 34.30191 | 114.54978 | 32150 ft | 457 kts | 1° |
| 2026-04-24 13:12 | 34.36536 | 114.55579 | 32155 ft | 457 kts | 1° |
| 2026-04-24 13:13 | 34.42874 | 114.56189 | 32149 ft | 457 kts | 1° |
| 2026-04-24 13:13 | 34.49214 | 114.56799 | 32147 ft | 456 kts | 1° |
| 2026-04-24 13:14 | 34.55545 | 114.57393 | 32149 ft | 456 kts | 1° |
| 2026-04-24 13:14 | 34.61874 | 114.57988 | 32146 ft | 456 kts | 1° |
| 2026-04-24 13:15 | 34.68207 | 114.58592 | 32148 ft | 456 kts | 2° |
| 2026-04-24 13:15 | 34.74492 | 114.59194 | 32149 ft | 456 kts | 2° |
| 2026-04-24 13:16 | 34.80822 | 114.59793 | 32148 ft | 456 kts | 2° |
| 2026-04-24 13:16 | 34.87148 | 114.60383 | 32143 ft | 456 kts | 2° |
| 2026-04-24 13:17 | 34.93476 | 114.60981 | 32141 ft | 456 kts | 2° |
| 2026-04-24 13:17 | 34.99810 | 114.61602 | 32142 ft | 457 kts | 2° |
| 2026-04-24 13:18 | 35.06143 | 114.62217 | 32146 ft | 457 kts | 2° |
| 2026-04-24 13:18 | 35.11411 | 114.62726 | 32152 ft | 457 kts | 2° |
| 2026-04-24 13:19 | 35.17748 | 114.63331 | 32144 ft | 457 kts | 2° |
| 2026-04-24 13:19 | 35.24046 | 114.63935 | 32149 ft | 456 kts | 2° |
| 2026-04-24 13:20 | 35.30381 | 114.64551 | 32151 ft | 456 kts | 2° |
| 2026-04-24 13:20 | 35.36712 | 114.65158 | 32139 ft | 456 kts | 2° |
| 2026-04-24 13:21 | 35.43043 | 114.65774 | 32139 ft | 456 kts | 2° |
| 2026-04-24 13:21 | 35.49374 | 114.66391 | 32142 ft | 456 kts | 2° |
| 2026-04-24 13:22 | 35.55706 | 114.67010 | 32141 ft | 456 kts | 2° |
| 2026-04-24 13:22 | 35.62035 | 114.67613 | 32129 ft | 456 kts | 2° |
| 2026-04-24 13:23 | 35.68361 | 114.68220 | 32126 ft | 456 kts | 2° |
| 2026-04-24 13:23 | 35.74684 | 114.68845 | 32123 ft | 456 kts | 2° |
| 2026-04-24 13:24 | 35.81011 | 114.69469 | 32121 ft | 456 kts | 2° |
| 2026-04-24 13:24 | 35.87339 | 114.70092 | 32121 ft | 456 kts | 2° |
| 2026-04-24 13:25 | 35.93672 | 114.70710 | 32116 ft | 456 kts | 2° |
| 2026-04-24 13:25 | 35.99963 | 114.71327 | 32118 ft | 457 kts | 2° |
| 2026-04-24 13:26 | 36.06295 | 114.71945 | 32120 ft | 457 kts | 2° |
| 2026-04-24 13:26 | 36.12629 | 114.72574 | 32121 ft | 456 kts | 2° |
| 2026-04-24 13:27 | 36.18959 | 114.73196 | 32122 ft | 456 kts | 3° |
| 2026-04-24 13:27 | 36.25098 | 114.75177 | 32119 ft | 461 kts | 24° |
| 2026-04-24 13:28 | 36.30288 | 114.79850 | 32114 ft | 466 kts | 46° |
| 2026-04-24 13:28 | 36.32269 | 114.83042 | 32113 ft | 469 kts | 57° |
| 2026-04-24 13:28 | 36.33917 | 114.86527 | 32116 ft | 469 kts | 58° |
| 2026-04-24 13:29 | 36.37638 | 114.93135 | 32114 ft | 466 kts | 44° |
| 2026-04-24 13:29 | 36.42311 | 114.98682 | 32114 ft | 465 kts | 41° |
| 2026-04-24 13:30 | 36.47000 | 115.04208 | 32115 ft | 465 kts | 41° |
| 2026-04-24 13:30 | 36.51683 | 115.09757 | 32119 ft | 465 kts | 41° |
| 2026-04-24 13:31 | 36.55864 | 115.15885 | 32117 ft | 468 kts | 57° |
| 2026-04-24 13:31 | 36.58670 | 115.23153 | 32119 ft | 470 kts | 64° |
| 2026-04-24 13:32 | 36.61316 | 115.30594 | 32124 ft | 470 kts | 64° |
| 2026-04-24 13:32 | 36.63970 | 115.38032 | 32125 ft | 470 kts | 64° |
| 2026-04-24 13:33 | 36.66619 | 115.45477 | 32125 ft | 470 kts | 64° |
| 2026-04-24 13:33 | 36.69259 | 115.52928 | 32127 ft | 470 kts | 64° |
| 2026-04-24 13:34 | 36.71887 | 115.60387 | 32124 ft | 470 kts | 64° |
| 2026-04-24 13:34 | 36.74511 | 115.67853 | 32126 ft | 470 kts | 64° |
| 2026-04-24 13:35 | 36.77141 | 115.75317 | 32124 ft | 470 kts | 64° |
| 2026-04-24 13:35 | 36.79714 | 115.82658 | 32127 ft | 471 kts | 64° |
| 2026-04-24 13:36 | 36.82325 | 115.90144 | 32128 ft | 471 kts | 64° |
| 2026-04-24 13:36 | 36.84933 | 115.97638 | 32127 ft | 471 kts | 64° |
| 2026-04-24 13:37 | 36.87544 | 116.05133 | 32131 ft | 471 kts | 64° |
| 2026-04-24 13:37 | 36.90154 | 116.12630 | 32128 ft | 471 kts | 64° |
| 2026-04-24 13:38 | 36.92751 | 116.20143 | 32125 ft | 471 kts | 65° |
| 2026-04-24 13:38 | 36.95332 | 116.27665 | 32125 ft | 471 kts | 65° |
| 2026-04-24 13:39 | 36.97914 | 116.35195 | 32121 ft | 471 kts | 65° |
| 2026-04-24 13:39 | 37.00504 | 116.42725 | 32127 ft | 471 kts | 65° |
| 2026-04-24 13:40 | 37.03088 | 116.50259 | 32124 ft | 471 kts | 65° |
| 2026-04-24 13:40 | 37.05665 | 116.57809 | 32125 ft | 472 kts | 65° |
| 2026-04-24 13:41 | 37.08236 | 116.65366 | 32123 ft | 472 kts | 65° |
| 2026-04-24 13:41 | 37.10796 | 116.72875 | 32116 ft | 472 kts | 65° |
| 2026-04-24 13:42 | 37.13388 | 116.80498 | 32118 ft | 473 kts | 65° |
| 2026-04-24 13:42 | 37.16008 | 116.87989 | 32118 ft | 472 kts | 63° |
| 2026-04-24 13:43 | 37.18765 | 116.95468 | 32120 ft | 472 kts | 63° |
| 2026-04-24 13:43 | 37.21536 | 117.02944 | 32121 ft | 473 kts | 63° |
| 2026-04-24 13:44 | 37.24269 | 117.10455 | 32120 ft | 473 kts | 64° |
| 2026-04-24 13:44 | 37.26970 | 117.17992 | 32119 ft | 474 kts | 64° |
| 2026-04-24 13:45 | 37.29669 | 117.25538 | 32125 ft | 474 kts | 64° |
| 2026-04-24 13:45 | 37.32375 | 117.33083 | 32129 ft | 474 kts | 64° |
| 2026-04-24 13:46 | 37.34994 | 117.40680 | 32129 ft | 475 kts | 70° |
| 2026-04-24 13:46 | 37.36381 | 117.48804 | 32132 ft | 477 kts | 80° |
| 2026-04-24 13:47 | 37.37444 | 117.57031 | 32133 ft | 477 kts | 80° |
| 2026-04-24 13:47 | 37.38516 | 117.65258 | 32139 ft | 477 kts | 80° |
| 2026-04-24 13:48 | 37.39582 | 117.73487 | 32140 ft | 477 kts | 80° |
| 2026-04-24 13:48 | 37.40639 | 117.81719 | 32134 ft | 477 kts | 80° |
| 2026-04-24 13:49 | 37.41684 | 117.89954 | 32135 ft | 477 kts | 80° |
| 2026-04-24 13:49 | 37.42719 | 117.98190 | 32139 ft | 477 kts | 81° |
| 2026-04-24 13:50 | 37.43757 | 118.06374 | 32135 ft | 477 kts | 81° |
| 2026-04-24 13:50 | 37.44796 | 118.14614 | 32138 ft | 477 kts | 81° |
| 2026-04-24 13:51 | 37.45820 | 118.22859 | 32137 ft | 477 kts | 81° |
| 2026-04-24 13:51 | 37.46861 | 118.31100 | 32139 ft | 477 kts | 81° |
| 2026-04-24 13:52 | 37.47917 | 118.39347 | 32138 ft | 477 kts | 81° |
| 2026-04-24 13:52 | 37.48965 | 118.47598 | 32137 ft | 477 kts | 81° |
| 2026-04-24 13:53 | 37.50005 | 118.55855 | 32136 ft | 478 kts | 81° |
| 2026-04-24 13:53 | 37.51036 | 118.64123 | 32136 ft | 478 kts | 81° |
| 2026-04-24 13:54 | 37.52059 | 118.72399 | 32137 ft | 478 kts | 81° |
| 2026-04-24 13:54 | 37.53052 | 118.80684 | 32138 ft | 479 kts | 83° |
| 2026-04-24 13:55 | 37.53751 | 118.89021 | 32139 ft | 479 kts | 85° |
| 2026-04-24 13:55 | 37.54277 | 118.97382 | 32140 ft | 479 kts | 86° |
| 2026-04-24 13:56 | 37.54831 | 119.05745 | 32142 ft | 479 kts | 85° |
| 2026-04-24 13:56 | 37.55441 | 119.14103 | 32144 ft | 479 kts | 85° |
| 2026-04-24 13:57 | 37.56070 | 119.22462 | 32143 ft | 479 kts | 85° |
| 2026-04-24 13:57 | 37.56680 | 119.30831 | 32145 ft | 479 kts | 85° |
| 2026-04-24 13:58 | 37.57269 | 119.39200 | 32145 ft | 480 kts | 85° |
| 2026-04-24 13:58 | 37.57849 | 119.47578 | 32144 ft | 480 kts | 86° |
| 2026-04-24 13:59 | 37.58430 | 119.55955 | 32148 ft | 480 kts | 86° |
| 2026-04-24 13:59 | 37.58985 | 119.64332 | 32144 ft | 480 kts | 86° |
| 2026-04-24 14:00 | 37.59562 | 119.72714 | 32145 ft | 480 kts | 85° |
| 2026-04-24 14:00 | 37.60201 | 119.81034 | 32145 ft | 480 kts | 85° |
| 2026-04-24 14:01 | 37.60846 | 119.89414 | 32144 ft | 480 kts | 85° |
| 2026-04-24 14:01 | 37.61470 | 119.97800 | 32141 ft | 480 kts | 86° |
| 2026-04-24 14:02 | 37.62082 | 120.06185 | 32144 ft | 480 kts | 86° |
| 2026-04-24 14:02 | 37.62691 | 120.14580 | 32153 ft | 481 kts | 86° |
| 2026-04-24 14:03 | 37.63294 | 120.22977 | 32153 ft | 481 kts | 86° |
| 2026-04-24 14:03 | 37.63889 | 120.31383 | 32149 ft | 481 kts | 86° |
| 2026-04-24 14:04 | 37.64479 | 120.39785 | 32152 ft | 481 kts | 86° |
| 2026-04-24 14:04 | 37.65717 | 120.48061 | 32158 ft | 482 kts | 69° |
| 2026-04-24 14:05 | 37.69030 | 120.55373 | 32153 ft | 481 kts | 49° |
| 2026-04-24 14:05 | 37.71371 | 120.58372 | 32150 ft | 479 kts | 38° |
| 2026-04-24 14:05 | 37.74066 | 120.60810 | 32147 ft | 477 kts | 28° |
| 2026-04-24 14:06 | 37.79810 | 120.65043 | 32137 ft | 478 kts | 28° |
| 2026-04-24 14:06 | 37.85543 | 120.69289 | 32142 ft | 478 kts | 28° |
| 2026-04-24 14:07 | 37.90308 | 120.72823 | 32153 ft | 477 kts | 28° |
| 2026-04-24 14:07 | 37.96954 | 120.77764 | 32159 ft | 476 kts | 28° |
| 2026-04-24 14:08 | 38.01741 | 120.81326 | 32157 ft | 476 kts | 28° |
| 2026-04-24 14:08 | 38.08370 | 120.86296 | 32157 ft | 476 kts | 28° |
| 2026-04-24 14:09 | 38.10295 | 120.87744 | 32018 ft | 475 kts | 28° |
| 2026-04-24 14:09 | 38.13153 | 120.89893 | 30979 ft | 482 kts | 28° |
| 2026-04-24 14:09 | 38.16060 | 120.92080 | 29988 ft | 488 kts | 28° |
| 2026-04-24 14:09 | 38.18989 | 120.94283 | 28916 ft | 491 kts | 28° |
| 2026-04-24 14:10 | 38.21818 | 120.96619 | 27898 ft | 494 kts | 36° |
| 2026-04-24 14:10 | 38.24334 | 120.99606 | 26901 ft | 497 kts | 47° |
| 2026-04-24 14:10 | 38.26373 | 121.03153 | 25884 ft | 499 kts | 59° |
| 2026-04-24 14:10 | 38.27904 | 121.07129 | 24834 ft | 501 kts | 65° |
| 2026-04-24 14:11 | 38.29310 | 121.11200 | 23850 ft | 502 kts | 65° |
| 2026-04-24 14:11 | 38.30709 | 121.15240 | 23136 ft | 495 kts | 65° |
| 2026-04-24 14:11 | 38.33456 | 121.23148 | 21666 ft | 482 kts | 65° |
| 2026-04-24 14:12 | 38.34805 | 121.27024 | 20905 ft | 476 kts | 65° |
| 2026-04-24 14:12 | 38.36136 | 121.30853 | 20168 ft | 470 kts | 65° |
| 2026-04-24 14:12 | 38.37445 | 121.34634 | 19538 ft | 462 kts | 65° |
| 2026-04-24 14:12 | 38.38712 | 121.38313 | 19371 ft | 444 kts | 65° |
| 2026-04-24 14:13 | 38.40070 | 121.41745 | 19256 ft | 424 kts | 55° |
| 2026-04-24 14:13 | 38.41936 | 121.44542 | 19118 ft | 406 kts | 40° |
| 2026-04-24 14:13 | 38.44188 | 121.46577 | 19012 ft | 390 kts | 26° |
| 2026-04-24 14:13 | 38.46648 | 121.47827 | 18897 ft | 374 kts | 14° |
| 2026-04-24 14:14 | 38.49110 | 121.48724 | 18769 ft | 361 kts | 14° |
| 2026-04-24 14:14 | 38.51481 | 121.49589 | 18653 ft | 349 kts | 14° |
| 2026-04-24 14:14 | 38.56015 | 121.51179 | 18239 ft | 330 kts | 7° |
| 2026-04-24 14:15 | 38.58280 | 121.51538 | 17809 ft | 327 kts | 5° |
| 2026-04-24 14:15 | 38.60503 | 121.51869 | 17381 ft | 325 kts | 5° |
| 2026-04-24 14:15 | 38.62749 | 121.52205 | 16950 ft | 324 kts | 5° |
| 2026-04-24 14:15 | 38.64984 | 121.52540 | 16516 ft | 323 kts | 5° |
| 2026-04-24 14:16 | 38.67213 | 121.52872 | 16095 ft | 322 kts | 6° |
| 2026-04-24 14:16 | 38.69437 | 121.53204 | 15673 ft | 321 kts | 6° |
| 2026-04-24 14:16 | 38.71653 | 121.53535 | 15222 ft | 318 kts | 6° |
| 2026-04-24 14:17 | 38.76027 | 121.54193 | 13640 ft | 316 kts | 6° |
| 2026-04-24 14:17 | 38.78196 | 121.54522 | 12856 ft | 312 kts | 5° |
| 2026-04-24 14:17 | 38.82448 | 121.55163 | 11399 ft | 303 kts | 5° |
| 2026-04-24 14:18 | 38.84476 | 121.55780 | 10693 ft | 300 kts | 26° |
| 2026-04-24 14:18 | 38.86063 | 121.57472 | 10009 ft | 299 kts | 54° |
| 2026-04-24 14:18 | 38.86830 | 121.59921 | 9221 ft | 299 kts | 84° |
| 2026-04-24 14:18 | 38.86761 | 121.62583 | 8388 ft | 301 kts | 96° |
| 2026-04-24 14:19 | 38.86552 | 121.65261 | 7599 ft | 302 kts | 96° |
| 2026-04-24 14:19 | 38.86333 | 121.67931 | 6883 ft | 301 kts | 96° |
| 2026-04-24 14:19 | 38.86112 | 121.70603 | 6078 ft | 302 kts | 97° |
| 2026-04-24 14:19 | 38.85901 | 121.73220 | 5566 ft | 292 kts | 97° |
| 2026-04-24 14:20 | 38.85703 | 121.75722 | 5399 ft | 271 kts | 97° |
| 2026-04-24 14:20 | 38.85515 | 121.78111 | 5249 ft | 270 kts | 97° |
| 2026-04-24 14:20 | 38.85327 | 121.80485 | 5033 ft | 266 kts | 97° |
| 2026-04-24 14:20 | 38.85140 | 121.82838 | 4831 ft | 265 kts | 97° |
| 2026-04-24 14:21 | 38.85066 | 121.85193 | 4606 ft | 264 kts | 79° |
| 2026-04-24 14:21 | 38.85838 | 121.87274 | 4426 ft | 259 kts | 42° |
| 2026-04-24 14:21 | 38.87343 | 121.88415 | 4237 ft | 250 kts | 7° |
| 2026-04-24 14:21 | 38.89057 | 121.88693 | 4046 ft | 250 kts | 1° |
| 2026-04-24 14:22 | 38.90790 | 121.88912 | 3859 ft | 250 kts | 0° |
| 2026-04-24 14:22 | 38.92478 | 121.88744 | 3664 ft | 239 kts | 330° |
| 2026-04-24 14:22 | 38.94068 | 121.85581 | 3362 ft | 215 kts | 265° |
| 2026-04-24 14:23 | 38.94102 | 121.83652 | 3197 ft | 218 kts | 275° |
| 2026-04-24 14:23 | 38.94347 | 121.81724 | 3042 ft | 218 kts | 274° |
| 2026-04-24 14:23 | 38.94536 | 121.79788 | 2890 ft | 219 kts | 272° |
| 2026-04-24 14:23 | 38.94696 | 121.77841 | 2739 ft | 219 kts | 271° |
| 2026-04-24 14:24 | 38.94846 | 121.75946 | 2624 ft | 208 kts | 271° |
| 2026-04-24 14:24 | 38.94990 | 121.74127 | 2621 ft | 203 kts | 271° |
| 2026-04-24 14:24 | 38.95130 | 121.72342 | 2594 ft | 200 kts | 271° |
| 2026-04-24 14:24 | 38.95266 | 121.70617 | 2424 ft | 187 kts | 270° |
| 2026-04-24 14:25 | 38.95393 | 121.69017 | 2184 ft | 171 kts | 269° |
| 2026-04-24 14:25 | 38.95507 | 121.67583 | 1993 ft | 152 kts | 267° |
| 2026-04-24 14:25 | 38.95608 | 121.66292 | 1799 ft | 144 kts | 266° |
| 2026-04-24 14:25 | 38.95705 | 121.65020 | 1600 ft | 142 kts | 267° |
| 2026-04-24 14:26 | 38.95802 | 121.63761 | 1410 ft | 141 kts | 268° |
| 2026-04-24 14:26 | 38.95898 | 121.62516 | 1230 ft | 140 kts | 269° |
| 2026-04-24 14:26 | 38.95994 | 121.61273 | 1039 ft | 140 kts | 269° |
| 2026-04-24 14:26 | 38.96091 | 121.60021 | 845 ft | 142 kts | 270° |
| 2026-04-24 14:27 | 38.96189 | 121.58744 | 647 ft | 144 kts | 272° |
| 2026-04-24 14:27 | 38.96290 | 121.57448 | 453 ft | 148 kts | 274° |
| 2026-04-24 14:27 | 38.96392 | 121.56130 | 252 ft | 149 kts | 274° |
| 2026-04-24 14:27 | 38.96497 | 121.54827 | 155 ft | 138 kts | 274° |
| 2026-04-24 14:28 | 38.96572 | 121.53760 | 150 ft | 97 kts | 276° |
| 2026-04-24 14:28 | 38.96620 | 121.53126 | 150 ft | 41 kts | 275° |
| 2026-04-24 14:28 | 38.96586 | 121.52860 | 150 ft | 23 kts | 246° |
| 2026-04-24 14:28 | 38.96541 | 121.52737 | 150 ft | 0 kts | 245° |
| 2026-04-24 14:29 | 38.96539 | 121.52729 | 150 ft | 2 kts | 245° |
| 2026-04-24 14:29 | 38.96532 | 121.52711 | 150 ft | 3 kts | 244° |
| 2026-04-24 14:29 | 38.96507 | 121.52687 | 150 ft | 6 kts | 192° |
| 2026-04-24 14:29 | 38.96463 | 121.52708 | 150 ft | 7 kts | 117° |
| 2026-04-24 14:30 | 38.96454 | 121.52757 | 150 ft | 10 kts | 94° |
| 2026-04-24 14:30 | 38.96444 | 121.52902 | 150 ft | 14 kts | 96° |
| 2026-04-24 14:30 | 38.96433 | 121.53046 | 150 ft | 18 kts | 96° |
| 2026-04-24 14:30 | 38.96423 | 121.53217 | 150 ft | 20 kts | 82° |
| 2026-04-24 14:31 | 38.96428 | 121.53411 | 150 ft | 23 kts | 96° |
| 2026-04-24 14:31 | 38.96411 | 121.53626 | 150 ft | 26 kts | 96° |
| 2026-04-24 14:31 | 38.96389 | 121.53868 | 150 ft | 29 kts | 97° |
| 2026-04-24 14:31 | 38.96361 | 121.53926 | 150 ft | 1 kts | 189° |
| 2026-04-24 14:32 | 38.96341 | 121.53924 | 150 ft | 5 kts | 182° |
| 2026-04-24 14:32 | 38.96311 | 121.53924 | 150 ft | 1 kts | 180° |
| 2026-04-24 14:32 | 38.96290 | 121.53923 | 150 ft | 5 kts | 182° |
| 2026-04-24 14:32 | 38.96249 | 121.53920 | 150 ft | 3 kts | 182° |
| 2026-04-24 14:33 | 38.96244 | 121.53920 | 150 ft | 0 kts | 182° |